Time;durP1;ratioP1;P1;durP2;ratioP2;P2;SDS_P1;SDS_P2;PMS_P1;PMS_P2;Temp;Humidity;BMP_temperature;BMP_pressure;BME280_temperature;BME280_humidity;BME280_pressure;Samples;Min_cycle;Max_cycle;Signal;HPM_P1;HPM_P2
2022/04/07 00:02:05;;;;;;;5.15;2.30;;;;;;;-2.14;74.34;98956.94;5080438;28;20051;-76
2022/04/07 00:04:50;;;;;;;6.85;3.22;;;;;;;-2.18;74.99;98951.25;5109675;28;20093;-76
2022/04/07 00:07:34;;;;;;;5.03;2.53;;;;;;;-2.22;74.78;98951.97;5111315;28;20422;-77
2022/04/07 00:10:20;;;;;;;6.00;2.67;;;;;;;-2.21;74.95;98953.59;5111779;28;20050;-77
2022/04/07 00:13:05;;;;;;;3.72;2.33;;;;;;;-2.10;75.50;98938.47;5096288;28;20046;-76
2022/04/07 00:15:52;;;;;;;3.72;2.33;;;;;;;-2.09;74.79;98940.09;5094299;28;20108;-76
2022/04/07 00:18:18;;;;;;;3.40;2.20;;;;;;;-2.01;74.91;98945.09;5111544;28;20032;-77
2022/04/07 00:20:43;;;;;;;3.85;2.22;;;;;;;-1.99;75.29;98951.03;5111662;28;20043;-76
2022/04/07 00:23:09;;;;;;;4.13;2.20;;;;;;;-1.99;75.26;98945.66;5111260;28;20097;-76
2022/04/07 00:25:53;;;;;;;3.55;2.13;;;;;;;-1.96;74.60;98945.19;5107322;28;20405;-77
2022/04/07 00:28:38;;;;;;;3.17;2.00;;;;;;;-1.96;74.77;98942.50;5095835;28;20059;-77
2022/04/07 00:31:22;;;;;;;5.50;2.30;;;;;;;-1.98;75.41;98945.44;5105792;28;20092;-76
2022/04/07 00:34:07;;;;;;;3.75;1.95;;;;;;;-2.03;75.11;98933.78;5090938;28;20078;-77
2022/04/07 00:36:51;;;;;;;4.05;2.22;;;;;;;-2.04;74.88;98943.72;5101518;28;20042;-76
2022/04/07 00:39:22;;;;;;;5.53;2.20;;;;;;;-2.06;75.45;98928.88;5093730;28;20482;-76
2022/04/07 00:41:48;;;;;;;3.97;2.05;;;;;;;-2.07;75.20;98924.56;5110928;28;20081;-76
2022/04/07 00:44:14;;;;;;;4.70;2.35;;;;;;;-2.02;75.40;98927.34;5111174;28;20036;-76
2022/04/07 00:46:58;;;;;;;2.83;1.90;;;;;;;-1.99;75.38;98924.97;5094021;28;20051;-76
2022/04/07 00:49:42;;;;;;;4.53;1.90;;;;;;;-1.94;74.72;98922.38;5090816;28;20059;-76
2022/04/07 00:52:28;;;;;;;3.53;1.90;;;;;;;-1.98;75.04;98928.47;5090955;28;20050;-77
2022/04/07 00:55:13;;;;;;;4.22;2.00;;;;;;;-2.01;75.17;98912.84;5076011;28;20093;-77
2022/04/07 00:57:58;;;;;;;2.13;1.65;;;;;;;-2.00;74.76;98919.84;5090871;28;20051;-76
2022/04/07 01:00:42;;;;;;;2.42;1.40;;;;;;;-2.03;75.00;98909.59;5090971;28;20093;-76
2022/04/07 01:03:09;;;;;;;4.03;1.73;;;;;;;-2.05;74.74;98911.72;5090993;28;20047;-77
2022/04/07 01:05:34;;;;;;;3.17;1.65;;;;;;;-2.04;75.62;98906.09;5094734;28;20051;-76
2022/04/07 01:08:00;;;;;;;3.60;1.63;;;;;;;-2.02;75.58;98912.03;5090919;28;20048;-77
2022/04/07 01:10:45;;;;;;;3.20;1.80;;;;;;;-2.01;75.17;98902.09;5090828;28;20071;-77
2022/04/07 01:13:50;;;;;;;2.13;1.40;;;;;;;-2.04;75.18;98906.09;5094656;28;20104;-77
2022/04/07 01:16:34;;;;;;;3.58;1.80;;;;;;;-2.05;74.62;98907.16;5065123;28;20148;-76
2022/04/07 01:19:18;;;;;;;3.28;1.52;;;;;;;-2.02;74.72;98901.28;5094387;28;20150;-76
2022/04/07 01:22:03;;;;;;;2.05;1.58;;;;;;;-2.05;75.04;98909.84;5082672;28;20059;-75
2022/04/07 01:24:31;;;;;;;2.67;1.73;;;;;;;-2.05;74.91;98900.97;5076438;28;20533;-74
2022/04/07 01:26:57;;;;;;;3.47;1.80;;;;;;;-2.05;75.01;98906.34;5076205;28;20040;-76
2022/04/07 01:29:41;;;;;;;5.10;2.20;;;;;;;-2.01;74.97;98902.91;5094264;28;20093;-76
2022/04/07 01:32:36;;;;;;;4.50;2.00;;;;;;;-2.06;74.77;98907.38;5094201;28;20051;-76
2022/04/07 01:35:23;;;;;;;3.25;1.90;;;;;;;-2.04;75.56;98910.66;5109715;28;20055;-76
2022/04/07 01:38:07;;;;;;;2.47;1.67;;;;;;;-2.09;75.78;98905.16;5084984;28;20047;-76
2022/04/07 01:40:51;;;;;;;2.08;1.40;;;;;;;-2.07;75.61;98906.56;5099338;28;20146;-76
2022/04/07 01:43:17;;;;;;;2.40;1.40;;;;;;;-2.09;75.25;98897.09;5114334;28;20126;-76
2022/04/07 01:45:43;;;;;;;2.63;1.80;;;;;;;-2.07;75.40;98890.44;5114415;28;20043;-77
2022/04/07 01:48:09;;;;;;;2.47;1.70;;;;;;;-2.05;75.46;98882.97;5114485;28;20086;-77
2022/04/07 01:50:54;;;;;;;2.45;1.58;;;;;;;-2.08;75.17;98883.44;5089548;28;20088;-75
2022/04/07 01:53:39;;;;;;;3.13;1.63;;;;;;;-2.07;75.57;98885.06;5093357;28;20054;-76
2022/04/07 01:56:23;;;;;;;3.33;1.92;;;;;;;-2.01;75.85;98875.22;5088990;28;20139;-77
2022/04/07 01:59:08;;;;;;;3.08;1.60;;;;;;;-2.01;75.22;98878.72;5098818;28;20039;-77
2022/04/07 02:01:34;;;;;;;4.55;1.77;;;;;;;-2.00;75.95;98871.47;5095845;28;20032;-76
2022/04/07 02:04:00;;;;;;;4.35;1.45;;;;;;;-2.03;75.74;98871.97;5095692;28;20543;-74
2022/04/07 02:06:27;;;;;;;2.92;1.75;;;;;;;-2.05;75.50;98861.47;5112654;28;20040;-77
2022/04/07 02:09:11;;;;;;;1.58;1.20;;;;;;;-2.05;75.40;98860.66;5113078;28;20086;-77
2022/04/07 02:11:55;;;;;;;2.28;1.48;;;;;;;-2.07;76.13;98852.03;5114168;28;20050;-77
2022/04/07 02:14:21;;;;;;;2.13;1.52;;;;;;;-2.13;76.10;98859.16;5110103;28;20039;-77
2022/04/07 02:16:47;;;;;;;1.90;1.33;;;;;;;-2.12;76.86;98856.22;5113511;28;20051;-76
2022/04/07 02:19:13;;;;;;;3.80;1.40;;;;;;;-2.13;76.25;98859.16;5113524;28;20598;-76
2022/04/07 02:21:57;;;;;;;2.95;1.58;;;;;;;-2.15;76.64;98866.66;5097937;28;20070;-76
2022/04/07 02:24:42;;;;;;;1.15;0.98;;;;;;;-2.19;76.53;98865.50;5098288;28;20054;-74
2022/04/07 02:27:34;;;;;;;2.58;1.30;;;;;;;-2.20;77.56;98863.88;5113731;28;20105;-77
2022/04/07 02:30:18;;;;;;;2.40;1.40;;;;;;;-2.22;76.80;98858.75;5113537;28;20046;-77
2022/04/07 02:33:02;;;;;;;1.92;1.02;;;;;;;-2.23;77.70;98850.94;5097817;28;20061;-76
2022/04/07 02:35:28;;;;;;;1.30;0.90;;;;;;;-2.24;77.93;98857.38;5113119;28;20044;-76
2022/04/07 02:37:54;;;;;;;3.28;1.40;;;;;;;-2.26;78.16;98854.88;5106226;28;20490;-77
2022/04/07 02:40:38;;;;;;;2.83;1.42;;;;;;;-2.25;78.00;98853.88;5112867;28;20118;-76
2022/04/07 02:43:22;;;;;;;1.80;1.25;;;;;;;-2.24;77.37;98860.06;5097568;28;20070;-76
2022/04/07 02:46:06;;;;;;;2.75;1.45;;;;;;;-2.23;77.34;98854.44;5097396;28;20100;-76
2022/04/07 02:48:51;;;;;;;1.88;1.08;;;;;;;-2.17;78.11;98844.59;5112989;28;20058;-76
2022/04/07 02:51:35;;;;;;;2.45;1.13;;;;;;;-2.16;77.68;98846.22;5097656;28;20050;-75
2022/04/07 02:54:20;;;;;;;2.13;1.10;;;;;;;-2.07;77.57;98842.09;5082496;28;20098;-76
2022/04/07 02:56:46;;;;;;;2.80;1.40;;;;;;;-2.06;76.95;98849.09;5092547;28;20067;-76
2022/04/07 02:59:12;;;;;;;1.73;1.27;;;;;;;-2.09;77.50;98844.16;5074637;28;20130;-77
2022/04/07 03:01:37;;;;;;;2.67;1.30;;;;;;;-2.08;77.41;98842.28;5074344;28;20127;-76
2022/04/07 03:04:24;;;;;;;2.72;1.05;;;;;;;-2.04;77.18;98846.16;5110192;28;20046;-75
2022/04/07 03:07:08;;;;;;;1.58;1.10;;;;;;;-1.95;77.81;98842.00;5083114;28;20058;-75
2022/04/07 03:09:53;;;;;;;3.00;1.40;;;;;;;-1.90;76.91;98834.84;5097616;28;20051;-75
2022/04/07 03:12:19;;;;;;;4.32;1.38;;;;;;;-1.93;76.85;98831.81;5112885;28;20043;-75
2022/04/07 03:14:44;;;;;;;6.72;1.80;;;;;;;-1.95;76.84;98833.94;5093364;28;20036;-77
2022/04/07 03:17:10;;;;;;;3.67;2.10;;;;;;;-1.97;77.50;98836.03;5092251;28;20048;-76
2022/04/07 03:19:54;;;;;;;5.57;2.40;;;;;;;-1.97;77.39;98838.72;5106889;28;20051;-77
2022/04/07 03:22:39;;;;;;;6.63;3.08;;;;;;;-2.02;76.98;98825.22;5092430;28;20410;-76
2022/04/07 03:25:23;;;;;;;6.13;3.10;;;;;;;-2.01;76.92;98829.53;5075800;28;20178;-76
2022/04/07 03:28:07;;;;;;;6.55;3.35;;;;;;;-1.98;77.62;98821.78;5077766;28;20529;-77
2022/04/07 03:30:52;;;;;;;8.10;2.97;;;;;;;-1.95;77.37;98836.63;5099278;28;20420;-76
2022/04/07 03:33:19;;;;;;;7.30;3.10;;;;;;;-2.01;76.87;98834.91;5104829;28;20047;-76
2022/04/07 03:35:44;;;;;;;5.20;2.38;;;;;;;-2.04;77.49;98830.84;5097358;28;20039;-76
2022/04/07 03:38:29;;;;;;;6.57;2.38;;;;;;;-2.01;76.52;98829.53;5112272;28;20463;-76
2022/04/07 03:41:13;;;;;;;4.72;2.00;;;;;;;-2.04;76.58;98832.72;5100976;28;20533;-76
2022/04/07 03:43:57;;;;;;;3.40;1.80;;;;;;;-2.00;76.78;98831.16;5091975;28;20456;-77
2022/04/07 03:46:42;;;;;;;2.80;1.40;;;;;;;-1.95;76.91;98826.69;5076217;28;20724;-77
2022/04/07 03:49:26;;;;;;;3.95;2.28;;;;;;;-1.92;76.91;98828.06;5097959;28;20144;-77
2022/04/07 03:51:52;;;;;;;4.63;1.80;;;;;;;-1.91;76.91;98833.22;5096887;27;20578;-76
2022/04/07 03:54:17;;;;;;;4.00;1.80;;;;;;;-1.86;76.90;98827.91;5096681;28;20577;-76
2022/04/07 03:57:27;;;;;;;3.55;2.00;;;;;;;-1.80;76.48;98820.72;5098103;28;20073;-76
2022/04/07 04:00:12;;;;;;;3.92;1.60;;;;;;;-1.85;76.51;98817.97;5109715;28;20488;-77
2022/04/07 04:02:56;;;;;;;2.85;1.80;;;;;;;-1.85;75.59;98804.53;5081457;28;20094;-76
2022/04/07 04:05:41;;;;;;;3.40;1.35;;;;;;;-1.80;75.70;98799.22;5091365;28;20054;-76
2022/04/07 04:08:25;;;;;;;2.45;1.42;;;;;;;-1.76;76.25;98800.34;5097427;28;20096;-76
2022/04/07 04:10:50;;;;;;;2.03;1.60;;;;;;;-1.72;75.32;98800.69;5111323;28;20130;-75
2022/04/07 04:13:16;;;;;;;2.58;1.45;;;;;;;-1.68;75.61;98804.50;5106084;28;20043;-75
2022/04/07 04:16:01;;;;;;;1.80;1.25;;;;;;;-1.64;74.77;98803.75;5098362;28;20050;-75
2022/04/07 04:18:45;;;;;;;3.70;1.75;;;;;;;-1.67;75.01;98798.06;5090906;28;20093;-75
2022/04/07 04:21:30;;;;;;;2.42;1.70;;;;;;;-1.69;75.04;98787.56;5090663;28;20050;-76
2022/04/07 04:24:15;;;;;;;1.92;1.60;;;;;;;-1.68;74.77;98773.06;5099307;28;20604;-75
2022/04/07 04:26:40;;;;;;;3.53;1.55;;;;;;;-1.68;75.39;98781.13;5101407;28;20135;-75
2022/04/07 04:29:06;;;;;;;2.83;1.67;;;;;;;-1.70;75.28;98775.19;5085308;28;20032;-76
2022/04/07 04:31:32;;;;;;;2.55;1.70;;;;;;;-1.69;75.52;98774.13;5090126;28;20135;-77
2022/04/07 04:34:16;;;;;;;3.08;1.70;;;;;;;-1.72;75.58;98779.19;5093022;28;20051;-76
2022/04/07 04:37:00;;;;;;;2.88;1.60;;;;;;;-1.76;75.54;98767.28;5094403;28;20476;-77
2022/04/07 04:39:50;;;;;;;4.20;2.40;;;;;;;-1.77;75.55;98771.03;5098812;28;20078;-77
2022/04/07 04:42:16;;;;;;;4.95;2.30;;;;;;;-1.78;75.41;98764.84;5096396;28;20043;-76
2022/04/07 04:44:41;;;;;;;3.08;2.17;;;;;;;-1.77;74.78;98761.09;5093925;28;20032;-77
2022/04/07 04:47:07;;;;;;;4.10;2.20;;;;;;;-1.78;75.17;98746.00;5082239;28;20202;-78
2022/04/07 04:49:51;;;;;;;4.65;2.10;;;;;;;-1.73;75.63;98758.75;5100529;28;20097;-77
2022/04/07 04:52:36;;;;;;;3.65;2.13;;;;;;;-1.73;74.30;98759.56;5099496;28;20047;-76
2022/04/07 04:55:20;;;;;;;3.88;2.00;;;;;;;-1.69;74.05;98747.25;5114609;28;20076;-77
2022/04/07 04:58:05;;;;;;;5.32;2.40;;;;;;;-1.68;74.64;98756.94;5115052;28;20054;-77
2022/04/07 05:00:50;;;;;;;5.80;2.47;;;;;;;-1.66;73.96;98756.69;5114876;28;20100;-77
2022/04/07 05:03:16;;;;;;;5.78;2.85;;;;;;;-1.64;73.99;98760.75;5096923;28;20043;-77
2022/04/07 05:05:42;;;;;;;4.35;2.35;;;;;;;-1.63;73.50;98758.88;5097198;28;20047;-77
2022/04/07 05:08:07;;;;;;;5.90;2.10;;;;;;;-1.60;74.63;98753.81;5114814;28;20414;-77
2022/04/07 05:10:51;;;;;;;5.50;2.28;;;;;;;-1.55;74.24;98755.75;5085629;28;20092;-77
2022/04/07 05:13:35;;;;;;;4.53;2.50;;;;;;;-1.47;73.64;98743.75;5114677;28;20097;-77
2022/04/07 05:16:20;;;;;;;4.10;2.30;;;;;;;-1.44;73.00;98749.44;5114699;28;20055;-77
2022/04/07 05:19:09;;;;;;;6.20;2.60;;;;;;;-1.40;72.76;98752.44;5114532;28;20054;-77
2022/04/07 05:21:35;;;;;;;4.35;2.08;;;;;;;-1.36;73.35;98738.25;5114543;28;20081;-76
2022/04/07 05:24:00;;;;;;;3.42;2.30;;;;;;;-1.35;72.85;98741.75;5114829;28;20127;-77
2022/04/07 05:26:26;;;;;;;3.00;2.28;;;;;;;-1.33;71.77;98737.75;5114126;28;20085;-77
2022/04/07 05:29:10;;;;;;;5.43;2.63;;;;;;;-1.31;72.25;98730.25;5106104;28;20092;-77
2022/04/07 05:31:54;;;;;;;4.85;2.30;;;;;;;-1.27;71.89;98725.16;5093789;28;20438;-77
2022/04/07 05:34:20;;;;;;;4.75;2.55;;;;;;;-1.22;72.50;98712.56;5093496;28;20056;-77
2022/04/07 05:36:45;;;;;;;5.25;2.60;;;;;;;-1.14;72.40;98715.91;5058878;28;20082;-77
2022/04/07 05:39:30;;;;;;;4.18;2.53;;;;;;;-1.11;71.92;98705.44;5078250;28;20051;-77
2022/04/07 05:42:14;;;;;;;4.68;2.50;;;;;;;-1.03;72.12;98698.81;5078550;28;20059;-77
2022/04/07 05:44:59;;;;;;;3.92;2.53;;;;;;;-0.92;71.86;98706.72;5093807;28;20185;-76
2022/04/07 05:47:25;;;;;;;5.50;2.67;;;;;;;-0.88;72.26;98695.44;5093949;28;20047;-76
2022/04/07 05:49:53;;;;;;;4.00;2.60;;;;;;;-0.78;72.50;98693.66;5093728;28;20054;-76
2022/04/07 05:52:19;;;;;;;5.78;2.70;;;;;;;-0.71;72.27;98690.75;5075503;28;20165;-76
2022/04/07 05:55:04;;;;;;;5.32;2.90;;;;;;;-0.59;72.06;98685.22;5093656;28;20050;-76
2022/04/07 05:57:49;;;;;;;7.40;3.25;;;;;;;-0.42;72.32;98692.09;5093052;28;20089;-76
2022/04/07 06:00:34;;;;;;;6.45;2.78;;;;;;;-0.35;71.51;98681.94;5096036;28;20127;-77
2022/04/07 06:03:05;;;;;;;5.40;3.00;;;;;;;-0.34;71.51;98680.03;5092959;28;20043;-76
2022/04/07 06:05:31;;;;;;;5.00;2.63;;;;;;;-0.33;71.82;98673.56;5074617;28;20044;-76
2022/04/07 06:08:01;;;;;;;5.50;3.10;;;;;;;-0.23;71.53;98673.63;5075217;28;20460;-77
2022/04/07 06:10:45;;;;;;;5.72;2.90;;;;;;;-0.18;72.02;98673.66;5092940;28;20050;-77
2022/04/07 06:13:30;;;;;;;5.25;2.90;;;;;;;-0.23;71.98;98670.94;5093192;28;20193;-77
2022/04/07 06:16:14;;;;;;;4.78;2.50;;;;;;;-0.28;72.66;98659.31;5093182;28;20047;-77
2022/04/07 06:18:58;;;;;;;5.65;3.50;;;;;;;-0.23;72.51;98662.03;5093029;28;20134;-77
2022/04/07 06:21:43;;;;;;;5.18;3.08;;;;;;;-0.21;72.16;98655.31;5093165;28;20139;-78
2022/04/07 06:24:27;;;;;;;4.43;2.65;;;;;;;-0.21;72.65;98658.00;5092836;28;20450;-76
2022/04/07 06:26:53;;;;;;;4.05;2.60;;;;;;;-0.21;72.41;98658.00;5092541;28;20597;-76
2022/04/07 06:29:19;;;;;;;4.88;2.80;;;;;;;-0.16;73.54;98659.94;5096281;28;20093;-77
2022/04/07 06:31:44;;;;;;;8.85;2.85;;;;;;;-0.18;73.56;98641.31;5074959;28;20039;-77
2022/04/07 06:34:29;;;;;;;3.60;2.47;;;;;;;-0.21;74.71;98638.34;5077738;28;20058;-77
2022/04/07 06:37:14;;;;;;;5.35;2.75;;;;;;;-0.25;76.83;98643.44;5081640;28;20067;-77
2022/04/07 06:40:02;;;;;;;5.82;2.58;;;;;;;-0.32;77.03;98638.28;5077277;28;20046;-77
2022/04/07 06:42:52;;;;;;;6.15;3.28;;;;;;;-0.37;78.29;98640.94;5092449;28;20125;-77
2022/04/07 06:45:17;;;;;;;4.57;2.60;;;;;;;-0.43;78.60;98623.13;5092445;28;20119;-76
2022/04/07 06:47:43;;;;;;;4.30;2.40;;;;;;;-0.48;79.64;98616.88;5092382;28;20131;-76
2022/04/07 06:50:27;;;;;;;5.57;2.55;;;;;;;-0.48;80.57;98615.00;5077381;28;20067;-77
2022/04/07 06:53:12;;;;;;;5.72;3.00;;;;;;;-0.41;80.68;98610.19;5092709;28;20051;-76
2022/04/07 06:55:56;;;;;;;4.38;2.22;;;;;;;-0.47;81.55;98610.44;5049066;28;20108;-77
2022/04/07 06:58:41;;;;;;;4.82;2.42;;;;;;;-0.55;82.92;98600.94;5092181;28;20177;-77
2022/04/07 07:01:25;;;;;;;4.57;2.80;;;;;;;-0.61;83.10;98618.13;5092239;28;20047;-77
2022/04/07 07:04:09;;;;;;;4.38;2.35;;;;;;;-0.69;84.75;98591.69;5092591;28;20054;-77
2022/04/07 07:06:36;;;;;;;2.88;1.90;;;;;;;-0.69;84.49;98583.59;5092359;28;20044;-77
2022/04/07 07:09:02;;;;;;;4.35;2.60;;;;;;;-0.67;85.15;98571.50;5074192;28;20069;-77
2022/04/07 07:11:46;;;;;;;3.50;2.20;;;;;;;-0.64;85.12;98572.88;5092183;28;20047;-76
2022/04/07 07:14:31;;;;;;;4.18;2.15;;;;;;;-0.63;85.54;98558.31;5091945;28;20087;-76
2022/04/07 07:17:15;;;;;;;3.65;2.20;;;;;;;-0.66;85.65;98556.16;5091878;28;20047;-76
2022/04/07 07:20:01;;;;;;;4.22;2.47;;;;;;;-0.65;86.06;98558.59;5077029;28;20170;-76
2022/04/07 07:22:45;;;;;;;6.35;2.25;;;;;;;-0.67;86.09;98547.25;5092111;28;20452;-77
2022/04/07 07:25:11;;;;;;;3.50;2.10;;;;;;;-0.63;87.39;98566.41;5073681;28;20518;-77
2022/04/07 07:27:42;;;;;;;4.78;2.25;;;;;;;-0.64;86.99;98559.41;5091474;28;20134;-77
2022/04/07 07:30:09;;;;;;;2.58;1.92;;;;;;;-0.65;86.86;98549.69;5091676;28;20521;-77
2022/04/07 07:32:54;;;;;;;3.58;1.98;;;;;;;-0.63;87.80;98555.63;5091850;28;20482;-77
2022/04/07 07:35:39;;;;;;;3.25;1.70;;;;;;;-0.60;87.49;98544.34;5076353;28;20050;-76
2022/04/07 07:38:23;;;;;;;3.03;1.80;;;;;;;-0.54;87.93;98543.28;5091602;28;20082;-77
2022/04/07 07:41:08;;;;;;;3.25;2.03;;;;;;;-0.47;87.32;98545.75;5091728;28;20055;-76
2022/04/07 07:43:52;;;;;;;3.30;1.73;;;;;;;-0.50;87.35;98533.63;5077346;28;20050;-76
2022/04/07 07:46:18;;;;;;;4.22;2.05;;;;;;;-0.48;87.81;98528.78;5093832;28;20043;-75
2022/04/07 07:48:43;;;;;;;3.08;1.80;;;;;;;-0.44;87.67;98529.06;5111913;28;20118;-77
2022/04/07 07:51:09;;;;;;;2.22;1.90;;;;;;;-0.42;88.45;98538.50;5111903;28;20059;-77
2022/04/07 07:53:53;;;;;;;3.28;1.63;;;;;;;-0.37;88.21;98530.44;5096662;28;20082;-77
2022/04/07 07:56:37;;;;;;;3.78;1.50;;;;;;;-0.29;88.49;98522.97;5111485;28;20068;-77
2022/04/07 07:59:21;;;;;;;3.85;1.83;;;;;;;-0.29;88.01;98528.34;5096163;28;20062;-76
2022/04/07 08:02:06;;;;;;;3.53;1.90;;;;;;;-0.30;88.37;98516.75;5111838;28;20086;-77
2022/04/07 08:04:50;;;;;;;2.67;1.80;;;;;;;-0.29;88.68;98517.56;5111314;28;20064;-77
2022/04/07 08:07:40;;;;;;;3.55;2.08;;;;;;;-0.29;88.48;98510.28;5111462;28;20084;-76
2022/04/07 08:10:06;;;;;;;1.90;1.70;;;;;;;-0.27;88.50;98510.84;5111717;28;20071;-76
2022/04/07 08:12:31;;;;;;;2.80;1.70;;;;;;;-0.24;88.89;98504.91;5076146;28;20456;-76
2022/04/07 08:15:15;;;;;;;3.70;1.67;;;;;;;-0.23;88.71;98494.94;5081782;28;20054;-77
2022/04/07 08:17:59;;;;;;;2.13;1.80;;;;;;;-0.19;88.56;98491.44;5096121;28;20542;-76
2022/04/07 08:20:44;;;;;;;4.07;1.70;;;;;;;-0.07;88.37;98500.13;5111141;28;20054;-77
2022/04/07 08:23:28;;;;;;;3.17;1.95;;;;;;;-0.08;89.04;98509.28;5111129;28;20046;-76
2022/04/07 08:26:13;;;;;;;3.17;2.03;;;;;;;-0.14;88.98;98509.56;5111199;28;20054;-76
2022/04/07 08:28:39;;;;;;;3.10;1.98;;;;;;;-0.13;88.66;98497.69;5108759;28;20043;-76
2022/04/07 08:31:04;;;;;;;2.30;1.70;;;;;;;-0.07;88.75;98507.41;5090837;28;20040;-76
2022/04/07 08:33:30;;;;;;;3.10;1.90;;;;;;;-0.13;88.62;98490.41;5090551;28;20537;-77
2022/04/07 08:36:14;;;;;;;3.05;1.70;;;;;;;-0.18;88.53;98486.88;5061491;28;20047;-77
2022/04/07 08:38:59;;;;;;;4.20;1.85;;;;;;;-0.16;88.87;98484.75;5091207;28;20097;-76
2022/04/07 08:41:45;;;;;;;2.65;1.67;;;;;;;-0.13;89.17;98476.94;5075336;28;20477;-76
2022/04/07 08:44:33;;;;;;;2.03;1.85;;;;;;;-0.10;89.30;98495.28;5075083;28;20198;-76
2022/04/07 08:46:59;;;;;;;3.25;1.77;;;;;;;-0.11;88.97;98471.28;5072952;28;20043;-76
2022/04/07 08:49:28;;;;;;;1.60;1.40;;;;;;;-0.10;89.10;98468.31;5090933;28;20105;-76
2022/04/07 08:52:13;;;;;;;2.20;1.80;;;;;;;-0.10;89.66;98483.69;5090624;28;20097;-76
2022/04/07 08:54:57;;;;;;;3.25;2.05;;;;;;;-0.12;90.02;98475.88;5075514;28;20133;-75
2022/04/07 08:57:41;;;;;;;3.97;1.98;;;;;;;-0.11;90.10;98466.69;5075079;28;20059;-76
2022/04/07 09:00:26;;;;;;;4.05;1.60;;;;;;;-0.10;90.03;98464.81;5075510;28;20054;-76
2022/04/07 09:03:16;;;;;;;2.60;1.60;;;;;;;-0.10;90.15;98452.16;5090680;28;20132;-75
2022/04/07 09:06:02;;;;;;;2.00;1.45;;;;;;;0.02;90.35;98443.84;5090861;28;20050;-78
2022/04/07 09:08:47;;;;;;;2.10;1.90;;;;;;;0.08;90.73;98469.72;5090791;28;20093;-76
2022/04/07 09:11:13;;;;;;;2.97;2.35;;;;;;;0.06;90.34;98449.50;5090707;28;20131;-77
2022/04/07 09:13:42;;;;;;;2.33;1.65;;;;;;;0.07;90.65;98446.53;5090583;28;20032;-76
2022/04/07 09:16:27;;;;;;;2.50;1.93;;;;;;;0.06;91.25;98444.91;5091081;28;20109;-76
2022/04/07 09:19:13;;;;;;;3.15;2.10;;;;;;;0.07;91.01;98446.53;5098538;28;20047;-76
2022/04/07 09:22:13;;;;;;;4.30;2.10;;;;;;;0.02;91.17;98449.22;5095036;28;20047;-76
2022/04/07 09:25:05;;;;;;;3.00;1.85;;;;;;;0.04;91.24;98443.56;5090246;28;20090;-76
2022/04/07 09:27:49;;;;;;;3.92;2.20;;;;;;;0.09;91.69;98451.66;5075061;28;20413;-76
2022/04/07 09:30:15;;;;;;;3.42;2.30;;;;;;;0.10;91.74;98437.91;5090252;28;20036;-77
2022/04/07 09:32:45;;;;;;;2.35;1.80;;;;;;;0.05;91.61;98435.19;5091621;28;20530;-77
2022/04/07 09:35:29;;;;;;;2.55;1.90;;;;;;;0.07;91.79;98433.03;5080877;28;20063;-77
2022/04/07 09:38:24;;;;;;;3.58;2.58;;;;;;;0.04;92.43;98430.06;5078877;28;20051;-77
2022/04/07 09:41:10;;;;;;;2.20;1.95;;;;;;;0.07;92.33;98433.03;5093976;28;20489;-77
2022/04/07 09:43:59;;;;;;;6.10;2.15;;;;;;;0.13;92.36;98431.16;5093910;28;20040;-77
2022/04/07 09:46:26;;;;;;;2.20;1.90;;;;;;;0.13;92.32;98414.97;5093717;28;20068;-76
2022/04/07 09:48:58;;;;;;;3.50;2.45;;;;;;;0.18;92.69;98423.91;5075841;28;20044;-76
2022/04/07 09:51:45;;;;;;;2.50;2.10;;;;;;;0.20;92.65;98416.34;5093784;28;20124;-76
2022/04/07 09:54:11;;;;;;;4.20;2.60;;;;;;;0.24;92.81;98420.13;5075833;28;20050;-75
2022/04/07 09:56:37;;;;;;;4.07;2.80;;;;;;;0.25;92.90;98413.66;5093951;28;20036;-75
2022/04/07 09:59:07;;;;;;;3.65;2.80;;;;;;;0.32;92.65;98405.28;5058833;28;20528;-77
2022/04/07 10:01:52;;;;;;;2.90;2.30;;;;;;;0.33;92.75;98403.41;5093448;28;20079;-77
2022/04/07 10:04:20;;;;;;;3.05;2.50;;;;;;;0.33;92.97;98400.69;5075602;28;20040;-77
2022/04/07 10:06:45;;;;;;;2.63;2.42;;;;;;;0.33;93.02;98404.19;5075387;28;20071;-77
2022/04/07 10:09:30;;;;;;;9.80;2.88;;;;;;;0.40;92.88;98401.25;5078052;28;20043;-76
2022/04/07 10:12:14;;;;;;;2.70;2.10;;;;;;;0.42;92.70;98391.00;5068055;28;20117;-76
2022/04/07 10:14:59;;;;;;;2.65;2.13;;;;;;;0.45;93.22;98401.25;5093313;28;20093;-76
2022/04/07 10:17:24;;;;;;;3.05;2.50;;;;;;;0.43;92.70;98392.63;5092407;28;20036;-77
2022/04/07 10:20:08;;;;;;;3.20;2.42;;;;;;;0.43;93.14;98384.53;5092070;28;20043;-78
2022/04/07 10:22:49;;;;;;;2.70;2.13;;;;;;;0.43;92.88;98384.53;5091685;28;20087;-77
2022/04/07 10:25:38;;;;;;;2.50;2.30;;;;;;;0.43;92.89;98384.53;5111405;27;20125;-77
2022/04/07 10:28:24;;;;;;;3.80;2.58;;;;;;;0.47;92.90;98394.50;5091898;28;20097;-76
2022/04/07 10:31:14;;;;;;;3.00;2.20;;;;;;;0.51;93.04;98383.97;5093067;28;20047;-76
2022/04/07 10:33:47;;;;;;;4.53;2.55;;;;;;;0.54;93.84;98369.97;5098896;27;20489;-76
2022/04/07 10:36:17;;;;;;;4.03;2.30;;;;;;;0.53;93.22;98376.44;5133856;27;20520;-76
2022/04/07 10:38:50;;;;;;;2.85;2.20;;;;;;;0.53;93.56;98368.34;5121560;27;20078;-76
2022/04/07 10:41:38;;;;;;;2.75;2.38;;;;;;;0.57;93.36;98364.81;5112871;28;20150;-76
2022/04/07 10:44:26;;;;;;;2.72;2.20;;;;;;;0.54;93.48;98370.78;5104609;28;20062;-76
2022/04/07 10:47:11;;;;;;;2.53;2.33;;;;;;;0.51;93.50;98368.59;5092079;28;20067;-75
2022/04/07 10:49:56;;;;;;;3.22;2.20;;;;;;;0.52;93.42;98356.75;5104660;27;20045;-75
2022/04/07 10:52:44;;;;;;;2.85;2.13;;;;;;;0.53;93.95;98363.75;5118730;27;20050;-76
2022/04/07 10:56:07;;;;;;;2.45;2.25;;;;;;;0.60;93.96;98363.47;5106398;28;20066;-75
2022/04/07 10:58:56;;;;;;;3.55;2.53;;;;;;;0.62;93.84;98364.00;5090044;28;20039;-77
2022/04/07 11:01:31;;;;;;;2.92;2.50;;;;;;;0.63;94.25;98372.91;5083750;28;20570;-74
2022/04/07 11:04:22;;;;;;;2.75;2.38;;;;;;;0.64;94.02;98359.13;5077340;28;20058;-77
2022/04/07 11:09:53;;;;;;;3.85;2.72;;;;;;;0.72;94.42;98358.59;5105528;28;20074;-75
2022/04/07 11:12:39;;;;;;;2.90;2.50;;;;;;;0.79;94.24;98356.41;5081748;28;20222;-74
2022/04/07 11:15:04;;;;;;;3.40;3.00;;;;;;;0.87;94.21;98352.38;5075420;28;20086;-74
2022/04/07 11:17:46;;;;;;;3.88;2.55;;;;;;;0.82;94.31;98350.47;5097020;28;20089;-75
2022/04/07 11:20:30;;;;;;;4.32;3.45;;;;;;;0.81;94.24;98356.94;5092344;28;20105;-74
2022/04/07 11:23:43;;;;;;;3.38;2.83;;;;;;;0.81;94.29;98351.53;5091916;28;20579;-77
2022/04/07 11:26:27;;;;;;;2.97;2.70;;;;;;;0.79;94.36;98356.41;5076024;28;20082;-76
2022/04/07 11:29:12;;;;;;;3.80;3.40;;;;;;;0.85;94.58;98349.09;5098396;28;20143;-75
2022/04/07 11:31:48;;;;;;;5.03;3.08;;;;;;;0.87;94.24;98353.16;5084696;28;20039;-74
2022/04/07 11:34:36;;;;;;;3.85;3.25;;;;;;;0.86;94.46;98351.53;5115589;27;20170;-75
2022/04/07 11:37:11;;;;;;;3.30;3.00;;;;;;;0.96;94.63;98344.50;5117642;27;20494;-75
2022/04/07 11:39:56;;;;;;;4.22;3.83;;;;;;;1.00;94.44;98350.94;5106531;27;20092;-75
2022/04/07 11:42:39;;;;;;;3.63;3.05;;;;;;;0.98;94.99;98353.94;5081568;27;20051;-77
2022/04/07 11:45:31;;;;;;;5.18;3.33;;;;;;;1.01;94.75;98345.28;5092789;28;20085;-74
2022/04/07 11:47:57;;;;;;;4.78;3.65;;;;;;;1.10;94.98;98348.22;5094995;28;20036;-74
2022/04/07 11:50:23;;;;;;;3.95;3.22;;;;;;;1.14;94.97;98346.59;5111955;28;20103;-76
2022/04/07 11:53:07;;;;;;;5.25;4.22;;;;;;;1.14;95.19;98352.00;5108017;27;20084;-76
2022/04/07 11:55:52;;;;;;;4.05;3.60;;;;;;;1.13;94.88;98348.47;5117906;27;20076;-75
2022/04/07 11:58:36;;;;;;;5.63;3.88;;;;;;;1.13;94.97;98350.38;5086441;28;20125;-74
2022/04/07 12:01:24;;;;;;;5.63;3.57;;;;;;;1.08;94.88;98350.41;5109918;27;20050;-76
2022/04/07 12:04:11;;;;;;;4.60;3.97;;;;;;;1.09;95.38;98344.72;5132131;27;20087;-75
2022/04/07 12:06:46;;;;;;;5.30;3.60;;;;;;;1.09;95.38;98358.22;5112855;27;20528;-76
2022/04/07 12:10:19;;;;;;;4.45;3.70;;;;;;;1.05;95.34;98351.78;5107007;28;20039;-75
2022/04/07 12:13:03;;;;;;;4.50;3.80;;;;;;;1.09;95.40;98350.13;5083954;28;20113;-76
2022/04/07 12:15:47;;;;;;;5.90;3.58;;;;;;;1.15;95.38;98349.00;5091207;28;20468;-75
2022/04/07 12:18:32;;;;;;;6.53;4.05;;;;;;;1.21;95.26;98355.19;5067320;28;20093;-75
2022/04/07 12:21:16;;;;;;;5.05;4.07;;;;;;;1.26;95.50;98351.69;5091746;28;20464;-75
2022/04/07 12:24:13;;;;;;;4.03;3.63;;;;;;;1.29;95.62;98359.22;5095646;28;20121;-75
2022/04/07 12:26:52;;;;;;;4.72;4.30;;;;;;;1.33;95.71;98354.88;5102675;28;20040;-87
2022/04/07 12:29:20;;;;;;;5.97;4.25;;;;;;;1.34;95.51;98354.59;5093409;28;20047;-74
2022/04/07 12:32:06;;;;;;;5.80;4.00;;;;;;;1.35;95.65;98348.13;5085517;28;20097;-76
2022/04/07 12:34:51;;;;;;;4.70;4.18;;;;;;;1.34;95.61;98351.91;5063544;28;20042;-76
2022/04/07 12:37:37;;;;;;;5.28;4.20;;;;;;;1.44;95.71;98345.66;5095433;28;20078;-77